Time;durP1;ratioP1;P1;durP2;ratioP2;P2;SDS_P1;SDS_P2;PMS_P1;PMS_P2;Temp;Humidity;BMP_temperature;BMP_pressure;BME280_temperature;BME280_humidity;BME280_pressure;Samples;Min_cycle;Max_cycle;Signal;HPM_P1;HPM_P2
2023/09/20 00:01:37;;;;;;;1.55;0.20;;;17.20;99.90;;;;;;4950133;28;20467;-81
2023/09/20 00:04:06;;;;;;;1.58;0.30;;;17.20;99.90;;;;;;4963324;28;20686;-82
2023/09/20 00:06:32;;;;;;;2.53;0.30;;;17.20;99.90;;;;;;4934932;28;20050;-81
2023/09/20 00:09:00;;;;;;;3.15;0.40;;;17.20;99.90;;;;;;4947718;28;20503;-83
2023/09/20 00:11:26;;;;;;;3.25;0.30;;;17.20;99.90;;;;;;4951185;28;20026;-82
2023/09/20 00:13:57;;;;;;;3.22;0.32;;;17.20;99.90;;;;;;4956418;28;20412;-86
2023/09/20 00:16:23;;;;;;;1.73;0.55;;;17.20;99.90;;;;;;4964090;28;20027;-84
2023/09/20 00:18:49;;;;;;;2.33;0.28;;;17.20;99.90;;;;;;4948500;28;20485;-84
2023/09/20 00:21:15;;;;;;;1.65;0.30;;;17.20;99.90;;;;;;4965884;28;20158;-82
2023/09/20 00:23:41;;;;;;;2.40;0.30;;;17.20;99.90;;;;;;4946494;28;20037;-82
2023/09/20 00:26:07;;;;;;;2.63;0.52;;;17.20;99.90;;;;;;4962476;28;20495;-84
2023/09/20 00:28:33;;;;;;;3.80;0.30;;;17.30;99.90;;;;;;4949532;28;20115;-87
2023/09/20 00:31:00;;;;;;;1.58;0.30;;;17.20;99.90;;;;;;4948845;28;20023;-81
2023/09/20 00:33:29;;;;;;;4.30;0.40;;;17.20;99.90;;;;;;4948620;28;20410;-82
2023/09/20 00:35:55;;;;;;;2.25;0.30;;;17.20;99.90;;;;;;4950572;28;20110;-80
2023/09/20 00:38:21;;;;;;;1.40;0.35;;;17.20;99.90;;;;;;4943351;28;20137;-83
2023/09/20 00:40:47;;;;;;;3.85;0.38;;;17.20;99.90;;;;;;4947019;28;20058;-84
2023/09/20 00:43:13;;;;;;;2.40;0.30;;;17.10;99.90;;;;;;4949699;28;20100;-82
2023/09/20 00:45:40;;;;;;;2.58;0.28;;;17.10;99.90;;;;;;4948630;28;20027;-81
2023/09/20 00:48:08;;;;;;;3.55;0.30;;;17.10;99.90;;;;;;4948496;28;20089;-83
2023/09/20 00:50:41;;;;;;;1.13;0.30;;;17.10;99.90;;;;;;4949126;28;20077;-83
2023/09/20 00:53:07;;;;;;;1.38;0.40;;;17.10;99.90;;;;;;4928814;28;20024;-82
2023/09/20 00:55:35;;;;;;;2.85;0.40;;;17.10;99.90;;;;;;4944042;28;20055;-82
2023/09/20 00:58:08;;;;;;;3.38;0.40;;;17.10;99.90;;;;;;4947035;28;20564;-86
2023/09/20 01:00:37;;;;;;;4.72;0.40;;;17.10;99.90;;;;;;4946553;28;20039;-83
2023/09/20 01:03:04;;;;;;;1.25;0.30;;;17.10;99.90;;;;;;4951273;28;20027;-84
2023/09/20 01:05:34;;;;;;;2.22;0.30;;;17.10;99.90;;;;;;4963759;28;20044;-85
2023/09/20 01:08:01;;;;;;;1.42;0.32;;;17.00;99.90;;;;;;4933080;28;20088;-87
2023/09/20 01:10:27;;;;;;;2.65;0.40;;;17.00;99.90;;;;;;4963596;28;20035;-83
2023/09/20 01:13:00;;;;;;;2.53;0.40;;;16.90;99.90;;;;;;4950851;28;20041;-83
2023/09/20 01:15:27;;;;;;;2.75;0.50;;;16.80;99.90;;;;;;4946610;28;20034;-83
2023/09/20 01:17:57;;;;;;;2.25;0.40;;;16.80;99.90;;;;;;4961025;28;20479;-83
2023/09/20 01:20:24;;;;;;;;;;;16.80;99.90;;;;;;4951521;28;20077;-81
2023/09/20 01:22:54;;;;;;;2.40;0.40;;;16.70;99.90;;;;;;5031908;28;20005;-83
2023/09/20 01:25:24;;;;;;;2.28;0.40;;;16.70;99.90;;;;;;4960395;28;20081;-86
2023/09/20 01:27:55;;;;;;;2.17;0.30;;;16.60;99.90;;;;;;4949680;28;20039;-83
2023/09/20 01:30:25;;;;;;;2.15;0.40;;;16.60;99.90;;;;;;4964508;28;20033;-81
2023/09/20 01:32:53;;;;;;;;;;;16.50;99.90;;;;;;4948870;28;20023;-82
2023/09/20 01:35:19;;;;;;;2.35;0.30;;;16.50;99.90;;;;;;4946384;28;20362;-81
2023/09/20 01:37:45;;;;;;;2.15;0.30;;;16.50;99.90;;;;;;4935432;28;20030;-81
2023/09/20 01:40:16;;;;;;;1.85;0.30;;;16.40;99.90;;;;;;4949809;28;20038;-86
2023/09/20 01:42:43;;;;;;;3.20;0.30;;;16.30;99.90;;;;;;4947550;28;20121;-84
2023/09/20 01:45:17;;;;;;;1.48;0.30;;;16.30;99.90;;;;;;4946371;28;20045;-82
2023/09/20 01:47:54;;;;;;;2.25;0.30;;;16.30;99.90;;;;;;4946997;28;20526;-81
2023/09/20 01:50:25;;;;;;;2.53;0.20;;;16.30;99.90;;;;;;4965221;28;20034;-84
2023/09/20 01:52:51;;;;;;;3.85;0.30;;;16.30;99.90;;;;;;4962087;28;20045;-82
2023/09/20 01:55:20;;;;;;;3.13;0.30;;;16.20;99.90;;;;;;4961202;28;20384;-80
2023/09/20 01:57:47;;;;;;;1.75;0.30;;;16.10;99.90;;;;;;4948904;28;20046;-82
2023/09/20 02:00:29;;;;;;;5.63;0.40;;;16.10;99.90;;;;;;4926772;28;20043;-83
2023/09/20 02:03:00;;;;;;;2.78;0.40;;;16.10;99.90;;;;;;4944130;28;20039;-82
2023/09/20 02:05:27;;;;;;;1.38;0.30;;;16.10;99.90;;;;;;4947729;28;20065;-82
2023/09/20 02:07:55;;;;;;;3.53;0.30;;;16.10;99.90;;;;;;4965466;28;20027;-84
2023/09/20 02:10:21;;;;;;;3.03;0.40;;;16.00;99.90;;;;;;4945686;28;20036;-83
2023/09/20 02:12:48;;;;;;;2.00;0.30;;;16.00;99.90;;;;;;4949343;28;20088;-84
2023/09/20 02:15:20;;;;;;;1.83;0.30;;;16.00;99.90;;;;;;4944617;28;20027;-80
2023/09/20 02:17:47;;;;;;;0.80;0.20;;;16.00;99.90;;;;;;4962848;28;20074;-82
2023/09/20 02:20:24;;;;;;;1.63;0.20;;;16.00;99.90;;;;;;4964658;28;20031;-82
2023/09/20 02:22:55;;;;;;;1.00;0.30;;;16.00;99.90;;;;;;4945772;28;20038;-83
2023/09/20 02:25:22;;;;;;;2.38;0.50;;;15.90;99.90;;;;;;4949404;28;20100;-83
2023/09/20 02:27:51;;;;;;;1.65;0.30;;;15.90;99.90;;;;;;4942841;28;20620;-87
2023/09/20 02:30:19;;;;;;;2.83;0.50;;;15.90;99.90;;;;;;4946592;28;20439;-82
2023/09/20 02:32:51;;;;;;;1.88;0.30;;;15.80;99.90;;;;;;4941229;28;20029;-82
2023/09/20 02:35:17;;;;;;;2.63;0.40;;;15.80;99.90;;;;;;4964253;28;20153;-80
2023/09/20 02:37:43;;;;;;;1.90;0.40;;;15.80;99.90;;;;;;4949825;28;20118;-85
2023/09/20 02:40:18;;;;;;;0.93;0.30;;;15.70;99.90;;;;;;4943404;28;20035;-81
2023/09/20 02:42:46;;;;;;;2.47;0.30;;;15.70;99.90;;;;;;4943355;29;20052;-81
2023/09/20 02:45:12;;;;;;;1.98;0.30;;;15.70;99.90;;;;;;4945112;28;20035;-82
2023/09/20 02:47:43;;;;;;;1.38;0.30;;;15.70;99.90;;;;;;4946155;28;20045;-83
2023/09/20 02:50:11;;;;;;;0.90;0.22;;;15.70;99.90;;;;;;4961144;28;20417;-83
2023/09/20 02:52:41;;;;;;;1.13;0.28;;;15.70;99.90;;;;;;4946349;28;20046;-80
2023/09/20 02:55:08;;;;;;;1.10;0.30;;;15.60;99.90;;;;;;4955625;28;20042;-83
2023/09/20 02:57:37;;;;;;;1.70;0.22;;;15.60;99.90;;;;;;4948776;28;20030;-83
2023/09/20 03:00:50;;;;;;;2.22;0.28;;;15.60;99.90;;;;;;4945179;28;20077;-88
2023/09/20 03:03:01;;;;;;;2.38;0.30;;;15.60;99.90;;;;;;4952125;28;20479;-82
2023/09/20 03:05:31;;;;;;;1.88;0.30;;;15.60;99.90;;;;;;4944697;28;20536;-83
2023/09/20 03:07:57;;;;;;;;;;;15.60;99.90;;;;;;4961143;28;20526;-80
2023/09/20 03:10:24;;;;;;;1.35;0.30;;;15.60;99.90;;;;;;4946173;28;19914;-83
2023/09/20 03:12:52;;;;;;;1.55;0.30;;;15.60;99.90;;;;;;4960368;28;20074;-80
2023/09/20 03:15:23;;;;;;;1.13;0.30;;;15.60;99.90;;;;;;4945895;28;20024;-82
2023/09/20 03:17:53;;;;;;;1.02;0.30;;;15.60;99.90;;;;;;4952758;28;20437;-84
2023/09/20 03:20:23;;;;;;;1.05;0.20;;;15.60;99.90;;;;;;4959016;28;20042;-82
2023/09/20 03:22:55;;;;;;;1.10;0.30;;;15.60;99.90;;;;;;4946773;28;20028;-82
2023/09/20 03:25:21;;;;;;;1.13;0.30;;;15.60;99.90;;;;;;4948726;28;20035;-83
2023/09/20 03:27:48;;;;;;;1.15;0.30;;;15.60;99.90;;;;;;4946121;28;20450;-88
2023/09/20 03:30:20;;;;;;;0.95;0.30;;;15.60;99.90;;;;;;4945493;28;20027;-82
2023/09/20 03:32:46;;;;;;;1.50;0.20;;;15.50;99.90;;;;;;4933485;28;20092;-82
2023/09/20 03:35:14;;;;;;;1.58;0.22;;;15.60;99.90;;;;;;4949918;28;20752;-84
2023/09/20 03:37:43;;;;;;;3.45;0.30;;;15.50;99.90;;;;;;4946360;28;20038;-81
2023/09/20 03:40:15;;;;;;;2.33;0.40;;;15.50;99.90;;;;;;4945544;28;20388;-81
2023/09/20 03:42:42;;;;;;;1.10;0.20;;;15.50;99.90;;;;;;4946611;28;20418;-82
2023/09/20 03:45:11;;;;;;;0.93;0.30;;;15.50;99.90;;;;;;4943106;28;20030;-84
2023/09/20 03:47:38;;;;;;;1.27;0.20;;;15.50;99.90;;;;;;4941480;28;20027;-81
2023/09/20 03:50:05;;;;;;;1.27;0.20;;;15.50;99.90;;;;;;4948570;28;20372;-81
2023/09/20 03:52:30;;;;;;;4.88;0.28;;;15.50;99.90;;;;;;4948706;28;20035;-85
2023/09/20 03:54:57;;;;;;;1.95;0.30;;;15.50;99.90;;;;;;4947866;28;20035;-82
2023/09/20 03:57:24;;;;;;;2.08;0.30;;;15.50;99.90;;;;;;4939605;28;20030;-83
2023/09/20 03:59:52;;;;;;;2.92;0.40;;;15.60;99.90;;;;;;4947298;28;20092;-82
2023/09/20 04:02:19;;;;;;;1.80;0.68;;;15.60;99.90;;;;;;4949609;28;20482;-83
2023/09/20 04:04:46;;;;;;;1.65;0.40;;;15.60;99.90;;;;;;4947161;28;20103;-81
2023/09/20 04:07:11;;;;;;;2.38;0.30;;;15.60;99.90;;;;;;4960127;28;20084;-81
2023/09/20 04:09:37;;;;;;;1.27;0.40;;;15.60;99.90;;;;;;4952262;28;20030;-81
2023/09/20 04:12:03;;;;;;;3.85;0.40;;;15.60;99.90;;;;;;4945844;28;20039;-82
2023/09/20 04:14:29;;;;;;;2.25;0.50;;;15.60;99.90;;;;;;4948443;28;20035;-82
2023/09/20 04:16:55;;;;;;;2.05;0.50;;;15.60;99.90;;;;;;4950846;28;20133;-82
2023/09/20 04:19:21;;;;;;;3.25;0.60;;;15.60;99.90;;;;;;4949472;28;20042;-82
2023/09/20 04:21:47;;;;;;;2.42;0.30;;;15.60;99.90;;;;;;4956907;28;20126;-84
2023/09/20 04:24:14;;;;;;;2.45;0.40;;;15.60;99.90;;;;;;4946462;28;20138;-85
2023/09/20 04:26:40;;;;;;;3.03;0.50;;;15.60;99.90;;;;;;4951495;28;20042;-81
2023/09/20 04:29:06;;;;;;;1.70;0.35;;;15.60;99.90;;;;;;4951185;28;20027;-87
2023/09/20 04:31:33;;;;;;;3.00;0.30;;;15.60;99.90;;;;;;4965948;28;20033;-82
2023/09/20 04:34:00;;;;;;;1.80;0.30;;;15.50;99.90;;;;;;4952461;28;20034;-81
2023/09/20 04:36:27;;;;;;;2.10;0.40;;;15.60;99.90;;;;;;4964374;28;20599;-81
2023/09/20 04:38:54;;;;;;;1.38;0.40;;;15.60;99.90;;;;;;4948398;28;20058;-85
2023/09/20 04:41:21;;;;;;;2.78;0.50;;;15.60;99.90;;;;;;4951669;28;20398;-81
2023/09/20 04:43:48;;;;;;;2.60;0.68;;;15.70;99.90;;;;;;4965549;28;20027;-83
2023/09/20 04:46:13;;;;;;;2.80;0.85;;;15.70;99.90;;;;;;4950120;28;20049;-83
2023/09/20 04:48:40;;;;;;;2.58;0.50;;;15.70;99.90;;;;;;4948259;28;20031;-83
2023/09/20 04:51:06;;;;;;;2.65;0.40;;;15.60;99.90;;;;;;4950477;28;20035;-81
2023/09/20 04:53:33;;;;;;;3.42;0.50;;;15.70;99.90;;;;;;4962812;28;20457;-84
2023/09/20 04:55:59;;;;;;;2.78;0.40;;;15.60;99.90;;;;;;4951560;28;20056;-82
2023/09/20 04:58:26;;;;;;;2.50;0.40;;;15.60;99.90;;;;;;4947471;28;20118;-84
2023/09/20 05:00:52;;;;;;;2.42;0.47;;;15.60;99.90;;;;;;4952061;28;20114;-84
2023/09/20 05:03:19;;;;;;;2.50;0.50;;;15.60;99.90;;;;;;4948310;28;20113;-82
2023/09/20 05:05:47;;;;;;;4.25;0.43;;;15.60;99.90;;;;;;4950524;28;20027;-82
2023/09/20 05:08:18;;;;;;;4.32;0.50;;;15.50;99.90;;;;;;4945948;28;20035;-83
2023/09/20 05:10:45;;;;;;;1.58;0.38;;;15.50;99.90;;;;;;4939973;28;20039;-82
2023/09/20 05:13:11;;;;;;;2.53;0.40;;;15.50;99.90;;;;;;4950443;28;20039;-83
2023/09/20 05:15:38;;;;;;;2.20;0.43;;;15.50;99.90;;;;;;4973886;28;20551;-81
2023/09/20 05:18:05;;;;;;;2.28;0.30;;;15.50;99.90;;;;;;4950283;28;20388;-84
2023/09/20 05:20:32;;;;;;;2.15;0.40;;;15.50;99.90;;;;;;4950053;28;20547;-83
2023/09/20 05:22:59;;;;;;;3.25;0.50;;;15.50;99.90;;;;;;4947372;28;20023;-84
2023/09/20 05:25:26;;;;;;;3.22;0.40;;;15.50;99.90;;;;;;4944997;28;20124;-83
2023/09/20 05:27:54;;;;;;;1.58;0.30;;;15.50;99.90;;;;;;4945998;28;20035;-83
2023/09/20 05:30:20;;;;;;;3.08;0.30;;;15.40;99.90;;;;;;4950200;28;20084;-84
2023/09/20 05:32:50;;;;;;;1.77;0.30;;;15.40;99.90;;;;;;4961664;28;20031;-83
2023/09/20 05:35:17;;;;;;;1.67;0.43;;;15.40;99.90;;;;;;4947213;28;20030;-83
2023/09/20 05:37:43;;;;;;;1.42;0.40;;;15.40;99.90;;;;;;4958559;28;20032;-82
2023/09/20 05:40:17;;;;;;;2.40;0.40;;;15.40;99.90;;;;;;4945020;28;20047;-84
2023/09/20 05:42:47;;;;;;;1.35;0.30;;;15.40;99.90;;;;;;4950450;28;20403;-82
2023/09/20 05:45:14;;;;;;;2.55;0.45;;;15.40;99.90;;;;;;4945855;28;20039;-83
2023/09/20 05:47:40;;;;;;;2.85;0.75;;;15.50;99.90;;;;;;4949678;28;20023;-82
2023/09/20 05:50:08;;;;;;;2.65;0.40;;;15.50;99.90;;;;;;4952968;28;20081;-83
2023/09/20 05:52:34;;;;;;;2.97;0.40;;;15.50;99.90;;;;;;4945010;28;20027;-83
2023/09/20 05:54:59;;;;;;;1.67;0.35;;;15.50;99.90;;;;;;4957019;28;20096;-83
2023/09/20 05:57:27;;;;;;;3.25;0.38;;;15.50;99.90;;;;;;4947473;28;20031;-82
2023/09/20 05:59:54;;;;;;;2.10;0.40;;;15.60;99.90;;;;;;4955037;28;20249;-83
2023/09/20 06:02:20;;;;;;;2.17;0.50;;;15.60;99.90;;;;;;4952057;28;20096;-81
2023/09/20 06:04:50;;;;;;;1.30;0.30;;;15.60;99.90;;;;;;4946610;28;20104;-83
2023/09/20 06:07:16;;;;;;;1.65;0.40;;;15.70;99.90;;;;;;4941909;28;20459;-85
2023/09/20 06:09:42;;;;;;;4.03;0.40;;;15.80;99.90;;;;;;4949663;28;20038;-83
2023/09/20 06:12:07;;;;;;;2.40;0.40;;;15.80;99.90;;;;;;4948097;28;20039;-83
2023/09/20 06:14:33;;;;;;;2.67;0.30;;;16.00;99.90;;;;;;4962872;28;20083;-82
2023/09/20 06:17:00;;;;;;;1.90;0.40;;;16.00;99.90;;;;;;4952620;28;20026;-82
2023/09/20 06:19:30;;;;;;;3.45;0.60;;;16.10;99.90;;;;;;4942104;28;20039;-83
2023/09/20 06:21:57;;;;;;;4.00;0.40;;;16.20;99.90;;;;;;4955218;28;20108;-87
2023/09/20 06:24:22;;;;;;;2.35;0.40;;;16.20;99.90;;;;;;4944275;28;20035;-84
2023/09/20 06:26:48;;;;;;;1.33;0.30;;;16.20;99.90;;;;;;4964174;28;20023;-83
2023/09/20 06:29:13;;;;;;;2.17;0.40;;;16.20;99.90;;;;;;4945918;28;20356;-85
2023/09/20 06:31:39;;;;;;;4.18;0.40;;;16.30;99.90;;;;;;4955157;28;20418;-82
2023/09/20 06:34:05;;;;;;;2.72;0.40;;;16.40;99.90;;;;;;4962386;28;20507;-83
2023/09/20 06:36:31;;;;;;;2.40;0.40;;;16.40;99.90;;;;;;4948154;28;20023;-83
2023/09/20 06:38:57;;;;;;;1.88;0.55;;;16.50;99.90;;;;;;4945473;28;20031;-84
2023/09/20 06:41:23;;;;;;;1.42;0.40;;;16.50;99.90;;;;;;4957686;28;20027;-84
2023/09/20 06:43:49;;;;;;;2.47;0.40;;;16.60;99.90;;;;;;4948344;28;20031;-83
2023/09/20 06:46:15;;;;;;;2.50;0.50;;;16.70;99.90;;;;;;4947288;28;20457;-84
2023/09/20 06:48:40;;;;;;;4.40;0.50;;;16.70;99.90;;;;;;4947461;28;20433;-86
2023/09/20 06:51:06;;;;;;;2.63;0.40;;;16.80;99.90;;;;;;4959407;28;20123;-83
2023/09/20 06:53:32;;;;;;;1.02;0.30;;;16.80;99.90;;;;;;4948805;28;20169;-82
2023/09/20 06:55:59;;;;;;;3.03;0.50;;;16.90;99.90;;;;;;4948418;28;20030;-86
2023/09/20 06:58:25;;;;;;;1.27;0.40;;;17.00;99.90;;;;;;4952102;28;20391;-83
2023/09/20 07:00:52;;;;;;;1.23;0.40;;;17.10;99.90;;;;;;4948127;28;20060;-82
2023/09/20 07:03:18;;;;;;;1.95;0.40;;;17.10;99.90;;;;;;4945393;28;20046;-83
2023/09/20 07:05:44;;;;;;;3.00;0.40;;;17.20;99.90;;;;;;4958046;28;20048;-83
2023/09/20 07:08:10;;;;;;;2.30;0.45;;;17.30;99.90;;;;;;4942860;28;20070;-83
2023/09/20 07:10:36;;;;;;;3.03;0.40;;;17.40;99.90;;;;;;4945042;28;20062;-85
2023/09/20 07:13:05;;;;;;;1.60;0.50;;;17.50;99.90;;;;;;4957497;28;20057;-83
2023/09/20 07:15:34;;;;;;;2.90;0.50;;;17.50;99.90;;;;;;4946519;28;20369;-83
2023/09/20 07:18:00;;;;;;;3.23;0.73;;;17.60;99.90;;;;;;5031529;28;20035;-83
2023/09/20 07:20:31;;;;;;;3.03;0.50;;;17.60;99.90;;;;;;4947163;28;20038;-85
2023/09/20 07:22:58;;;;;;;1.80;0.40;;;17.60;99.90;;;;;;4940936;28;20035;-85
2023/09/20 07:25:27;;;;;;;1.67;0.40;;;17.70;99.90;;;;;;4963451;28;20114;-85
2023/09/20 07:27:55;;;;;;;2.45;0.70;;;17.70;99.90;;;;;;4947765;28;20114;-84
2023/09/20 07:30:22;;;;;;;1.52;0.50;;;17.90;99.90;;;;;;4942844;28;20027;-85
2023/09/20 07:32:51;;;;;;;2.90;0.40;;;18.10;99.90;;;;;;4929306;28;20593;-83
2023/09/20 07:35:27;;;;;;;3.40;0.67;;;18.30;99.90;;;;;;4943694;28;20185;-83
2023/09/20 07:37:57;;;;;;;2.58;0.50;;;18.30;99.90;;;;;;4959953;28;20023;-83
2023/09/20 07:40:31;;;;;;;3.03;0.70;;;18.40;99.90;;;;;;4946182;28;20039;-84
2023/09/20 07:42:59;;;;;;;2.58;0.60;;;18.40;99.90;;;;;;4958686;28;20035;-82
2023/09/20 07:45:38;;;;;;;4.15;0.60;;;18.40;99.90;;;;;;5043496;28;20039;-85
2023/09/20 07:48:16;;;;;;;2.28;0.68;;;18.30;99.90;;;;;;4943007;28;20399;-87
2023/09/20 07:50:45;;;;;;;2.45;0.50;;;18.30;99.90;;;;;;4964166;28;20031;-84
2023/09/20 07:53:13;;;;;;;4.30;0.93;;;18.30;99.90;;;;;;4965113;28;20031;-84
2023/09/20 07:55:46;;;;;;;2.42;0.57;;;18.30;99.90;;;;;;4960010;28;20092;-88
2023/09/20 07:58:19;;;;;;;1.80;0.50;;;18.50;99.90;;;;;;4946422;28;20031;-82
2023/09/20 08:00:47;;;;;;;1.83;0.50;;;18.70;99.90;;;;;;4947383;28;20042;-84
2023/09/20 08:03:14;;;;;;;3.28;0.52;;;19.00;99.90;;;;;;4963089;28;20094;-83
2023/09/20 08:05:41;;;;;;;2.30;0.55;;;19.00;99.90;;;;;;4962528;28;20109;-86
2023/09/20 08:08:08;;;;;;;2.10;0.50;;;18.90;99.90;;;;;;5046309;28;20113;-86
2023/09/20 08:10:35;;;;;;;1.92;0.60;;;19.00;99.90;;;;;;4961981;28;20027;-82
2023/09/20 08:13:03;;;;;;;2.72;0.50;;;19.00;99.90;;;;;;4946820;28;20385;-82
2023/09/20 08:15:42;;;;;;;2.67;0.40;;;19.00;99.90;;;;;;4950791;28;20031;-83
2023/09/20 08:20:53;;;;;;;2.22;0.50;;;18.80;99.90;;;;;;4961435;28;20040;-83
2023/09/20 09:01:48;;;;;;;2.75;0.30;;;19.80;99.90;;;;;;4959716;28;20027;-86
2023/09/20 09:04:17;;;;;;;1.63;0.60;;;19.70;99.90;;;;;;4946635;28;20027;-82
2023/09/20 09:06:44;;;;;;;1.65;0.32;;;19.70;99.90;;;;;;4962485;28;20082;-83
2023/09/20 09:09:13;;;;;;;1.83;0.40;;;19.60;99.90;;;;;;4962522;28;20066;-85
2023/09/20 09:11:39;;;;;;;3.15;0.30;;;19.60;99.90;;;;;;4950145;28;20068;-83
2023/09/20 09:14:05;;;;;;;1.40;0.40;;;19.80;99.90;;;;;;4958965;28;20143;-83
2023/09/20 09:16:33;;;;;;;1.67;0.40;;;19.90;99.90;;;;;;4947326;28;20030;-83
2023/09/20 09:18:59;;;;;;;1.73;0.40;;;19.70;99.90;;;;;;4943255;28;20047;-84
2023/09/20 09:21:26;;;;;;;2.05;0.40;;;19.70;99.90;;;;;;4949955;28;20081;-82
2023/09/20 09:23:52;;;;;;;1.40;0.35;;;19.60;99.90;;;;;;4961386;28;20102;-82
2023/09/20 09:26:18;;;;;;;2.17;0.40;;;19.80;99.90;;;;;;4964484;28;20137;-82
2023/09/20 09:28:47;;;;;;;0.88;0.30;;;19.90;99.90;;;;;;4956121;28;20031;-83
2023/09/20 09:31:13;;;;;;;2.10;0.40;;;20.10;99.90;;;;;;4945408;28;20034;-83
2023/09/20 09:33:40;;;;;;;2.22;0.32;;;20.20;99.90;;;;;;4950562;28;20027;-82
2023/09/20 09:36:06;;;;;;;1.30;0.30;;;20.40;99.90;;;;;;4945657;28;20079;-84
2023/09/20 09:38:34;;;;;;;1.48;0.30;;;20.20;99.90;;;;;;4945993;28;20035;-84
2023/09/20 09:41:01;;;;;;;2.17;0.38;;;20.30;99.90;;;;;;4963344;28;20035;-82
2023/09/20 09:43:28;;;;;;;1.90;0.40;;;20.40;99.90;;;;;;4954113;28;20050;-83
2023/09/20 09:45:55;;;;;;;2.45;0.50;;;20.50;99.90;;;;;;4947606;28;20042;-83
2023/09/20 09:48:24;;;;;;;2.05;0.40;;;20.40;99.90;;;;;;4943377;28;20427;-82
2023/09/20 09:50:50;;;;;;;3.22;0.43;;;20.70;99.90;;;;;;4959999;28;20038;-83
2023/09/20 09:53:20;;;;;;;1.83;0.50;;;20.70;99.90;;;;;;4961477;28;20030;-83
2023/09/20 09:55:48;;;;;;;1.10;0.50;;;20.80;99.90;;;;;;4948685;28;20282;-82
2023/09/20 09:58:14;;;;;;;2.20;0.50;;;20.70;99.90;;;;;;4953563;28;20429;-84
2023/09/20 10:00:41;;;;;;;2.60;0.47;;;20.50;99.90;;;;;;4961759;28;20053;-83
2023/09/20 10:03:42;;;;;;;2.20;0.40;;;20.60;99.90;;;;;;4946614;28;20524;-83
2023/09/20 10:06:15;;;;;;;2.28;0.52;;;20.70;99.90;;;;;;4941808;28;20402;-84
2023/09/20 10:08:42;;;;;;;3.78;0.60;;;20.50;99.90;;;;;;4963227;28;20023;-83
2023/09/20 10:11:09;;;;;;;4.05;0.70;;;20.30;99.90;;;;;;4942715;28;20023;-83
2023/09/20 10:13:37;;;;;;;1.98;0.40;;;20.30;99.90;;;;;;4955345;28;20092;-82
2023/09/20 10:16:05;;;;;;;2.83;0.50;;;20.50;99.90;;;;;;4961764;28;20039;-83
2023/09/20 10:18:51;;;;;;;1.23;0.40;;;20.80;99.90;;;;;;4946194;28;20039;-84
2023/09/20 10:21:20;;;;;;;2.45;0.63;;;20.70;99.90;;;;;;5026113;28;20475;-84
2023/09/20 10:23:57;;;;;;;2.15;0.50;;;20.80;99.90;;;;;;4943082;28;20247;-82
2023/09/20 10:26:23;;;;;;;2.92;0.50;;;20.50;99.90;;;;;;4958948;28;20038;-84
2023/09/20 10:28:53;;;;;;;3.63;0.60;;;20.60;99.90;;;;;;4961977;28;20031;-84
2023/09/20 10:31:19;;;;;;;1.50;0.40;;;20.70;99.90;;;;;;4944631;28;20038;-82
2023/09/20 10:33:55;;;;;;;2.63;0.50;;;21.00;99.90;;;;;;4960440;28;20448;-83
2023/09/20 10:36:27;;;;;;;2.55;0.40;;;21.30;99.90;;;;;;4944020;28;20030;-84
2023/09/20 10:39:19;;;;;;;1.50;0.38;;;21.60;99.90;;;;;;4947100;28;20026;-83
2023/09/20 10:41:46;;;;;;;1.48;0.43;;;21.70;99.90;;;;;;4957785;28;20039;-83
2023/09/20 10:44:29;;;;;;;1.73;0.43;;;21.50;99.90;;;;;;4949903;28;20035;-86
2023/09/20 10:46:58;;;;;;;2.10;0.45;;;21.60;99.90;;;;;;4946502;28;20023;-83
2023/09/20 10:49:50;;;;;;;1.58;0.43;;;21.60;99.90;;;;;;4953772;28;20133;-81
2023/09/20 10:52:32;;;;;;;1.60;0.40;;;21.50;99.90;;;;;;4943786;28;20023;-83
2023/09/20 10:55:20;;;;;;;2.35;0.45;;;21.80;99.90;;;;;;4952329;28;20395;-83
2023/09/20 10:57:49;;;;;;;2.08;0.30;;;22.10;99.90;;;;;;4954510;28;20038;-84
2023/09/20 11:00:25;;;;;;;2.13;0.30;;;22.10;99.90;;;;;;4944654;28;20045;-83
2023/09/20 11:02:52;;;;;;;2.38;0.40;;;22.20;99.90;;;;;;4940881;28;20063;-83
2023/09/20 11:05:23;;;;;;;1.30;0.30;;;22.10;99.90;;;;;;4945569;28;20486;-84
2023/09/20 11:07:53;;;;;;;1.55;0.30;;;22.10;99.90;;;;;;4960347;28;20023;-84
2023/09/20 11:10:19;;;;;;;1.52;0.30;;;22.20;99.90;;;;;;4962490;28;20055;-84
2023/09/20 11:12:45;;;;;;;0.77;0.28;;;22.40;99.90;;;;;;4943214;29;20070;-84
2023/09/20 11:15:14;;;;;;;1.30;0.30;;;22.40;99.90;;;;;;4958244;28;20150;-84
2023/09/20 11:17:39;;;;;;;2.05;0.40;;;22.40;99.90;;;;;;4950871;28;20416;-84
2023/09/20 11:20:07;;;;;;;2.38;0.30;;;21.90;99.90;;;;;;4939778;29;20119;-85
2023/09/20 11:22:33;;;;;;;0.98;0.20;;;22.00;99.90;;;;;;4956559;28;20498;-84
2023/09/20 11:25:04;;;;;;;1.67;0.20;;;22.30;99.90;;;;;;4961519;28;20539;-86
2023/09/20 11:27:34;;;;;;;1.52;0.30;;;22.50;99.90;;;;;;4962783;28;20043;-85
2023/09/20 11:30:08;;;;;;;2.53;0.20;;;22.70;99.90;;;;;;4944124;29;20468;-83
2023/09/20 11:32:34;;;;;;;0.57;0.30;;;22.80;99.90;;;;;;4960772;28;20216;-85
2023/09/20 11:35:01;;;;;;;1.42;0.30;;;22.50;99.90;;;;;;4942544;29;20231;-84
2023/09/20 11:37:30;;;;;;;0.75;0.20;;;22.50;99.90;;;;;;4963132;28;20081;-85
2023/09/20 11:39:56;;;;;;;3.00;0.20;;;22.90;99.90;;;;;;4960517;28;20062;-83
2023/09/20 11:42:31;;;;;;;2.25;0.28;;;22.70;99.90;;;;;;4962216;28;20472;-86
2023/09/20 11:45:05;;;;;;;1.45;0.20;;;22.40;99.90;;;;;;4946801;29;20035;-84
2023/09/20 11:47:33;;;;;;;0.65;0.20;;;22.70;99.90;;;;;;4945389;28;20214;-84
2023/09/20 11:50:00;;;;;;;2.22;0.20;;;22.40;99.90;;;;;;4945995;29;20054;-84
2023/09/20 11:52:27;;;;;;;1.83;0.20;;;22.40;99.90;;;;;;4955937;28;20035;-86
2023/09/20 11:55:02;;;;;;;1.95;0.20;;;22.10;99.90;;;;;;4956207;28;20024;-83
2023/09/20 11:57:28;;;;;;;1.58;0.30;;;22.00;99.90;;;;;;4946059;28;20067;-83
2023/09/20 11:59:54;;;;;;;1.20;0.10;;;22.10;99.90;;;;;;4955474;28;20063;-85
2023/09/20 12:02:20;;;;;;;1.10;0.20;;;22.00;99.90;;;;;;4961783;28;20103;-85
2023/09/20 12:04:51;;;;;;;0.88;0.20;;;21.90;99.90;;;;;;4954373;28;20028;-83
2023/09/20 12:07:17;;;;;;;0.50;0.10;;;22.20;99.90;;;;;;4957485;28;20420;-84
2023/09/20 12:09:43;;;;;;;2.10;0.20;;;22.30;99.90;;;;;;4945134;28;20034;-84
2023/09/20 12:12:10;;;;;;;1.17;0.20;;;22.20;99.90;;;;;;4950742;28;20390;-83
2023/09/20 12:14:39;;;;;;;0.70;0.17;;;22.20;99.90;;;;;;4957882;28;20042;-83
2023/09/20 12:17:06;;;;;;;0.65;0.20;;;22.10;99.90;;;;;;4931342;28;20031;-85
2023/09/20 12:19:32;;;;;;;1.05;0.10;;;22.30;99.90;;;;;;4943950;28;20465;-86
2023/09/20 12:21:58;;;;;;;1.65;0.20;;;22.40;99.90;;;;;;4946872;28;20140;-84
2023/09/20 12:24:24;;;;;;;1.90;0.30;;;22.50;99.90;;;;;;4952178;28;20026;-84
2023/09/20 12:26:51;;;;;;;2.92;0.20;;;22.20;99.90;;;;;;4951705;28;20038;-84
2023/09/20 12:29:17;;;;;;;2.40;0.20;;;22.00;99.90;;;;;;4931213;28;20126;-84
2023/09/20 12:31:43;;;;;;;0.85;0.22;;;22.20;99.90;;;;;;4948709;28;20109;-85
2023/09/20 12:34:08;;;;;;;2.63;0.20;;;22.40;99.90;;;;;;4947451;28;20114;-84
2023/09/20 12:36:35;;;;;;;1.48;0.20;;;22.40;99.90;;;;;;4962997;28;20027;-85
2023/09/20 12:39:01;;;;;;;1.95;0.20;;;22.50;99.90;;;;;;4950773;28;20456;-86
2023/09/20 12:41:27;;;;;;;1.63;0.20;;;22.40;99.90;;;;;;4950450;28;20031;-88
2023/09/20 12:43:53;;;;;;;0.30;0.10;;;22.50;99.90;;;;;;4952432;28;20027;-85
2023/09/20 12:46:20;;;;;;;2.20;0.20;;;22.50;99.90;;;;;;4949596;28;20043;-85
2023/09/20 12:48:48;;;;;;;1.15;0.20;;;22.50;99.90;;;;;;4949063;28;20088;-86
2023/09/20 12:51:14;;;;;;;0.65;0.20;;;22.70;99.90;;;;;;4963166;28;20386;-85
2023/09/20 12:53:43;;;;;;;0.68;0.10;;;22.70;99.90;;;;;;4963180;28;20081;-85
2023/09/20 12:56:12;;;;;;;0.70;0.20;;;22.60;99.90;;;;;;4932027;28;20422;-84
2023/09/20 12:58:39;;;;;;;0.93;0.20;;;22.10;99.90;;;;;;4965481;28;20452;-86
2023/09/20 13:01:07;;;;;;;1.95;0.15;;;22.10;99.90;;;;;;4965593;28;20043;-85
2023/09/20 13:03:33;;;;;;;1.33;0.20;;;22.40;99.90;;;;;;4931509;28;20150;-84
2023/09/20 13:05:59;;;;;;;0.30;0.10;;;22.70;99.90;;;;;;4964058;28;20035;-83
2023/09/20 13:08:24;;;;;;;3.17;0.20;;;22.80;99.90;;;;;;4949490;28;20029;-85
2023/09/20 13:10:51;;;;;;;2.47;0.20;;;22.60;99.90;;;;;;4930431;28;20464;-86
2023/09/20 13:13:18;;;;;;;1.52;0.20;;;22.40;99.90;;;;;;4965893;28;20074;-86
2023/09/20 13:15:43;;;;;;;0.75;0.17;;;22.40;99.90;;;;;;4959477;28;20419;-86
2023/09/20 13:18:11;;;;;;;1.48;0.20;;;22.40;99.90;;;;;;4948434;28;20038;-87
2023/09/20 13:20:37;;;;;;;1.50;0.15;;;22.50;99.90;;;;;;4954421;28;20039;-85
2023/09/20 13:23:07;;;;;;;1.73;0.20;;;22.50;99.90;;;;;;4931312;28;20027;-86
2023/09/20 13:25:34;;;;;;;1.20;0.20;;;22.20;99.90;;;;;;4947005;28;20028;-85
2023/09/20 13:27:59;;;;;;;0.60;0.20;;;22.30;99.90;;;;;;4957754;28;20088;-85
2023/09/20 13:30:26;;;;;;;1.42;0.30;;;22.50;99.90;;;;;;4963797;28;20034;-86
2023/09/20 13:32:52;;;;;;;1.17;0.20;;;22.70;99.90;;;;;;4955982;28;20039;-84
2023/09/20 13:35:18;;;;;;;4.57;0.40;;;22.80;99.90;;;;;;4948270;28;20447;-86